sensor_id;sensor_type;location;lat;lon;timestamp;P1;durP1;ratioP1;P2;durP2;ratioP2
52898;SDS011;38763;53.096;6.062;2022-10-17T00:00:41;11.27;;;3.40;;
52898;SDS011;38763;53.096;6.062;2022-10-17T00:03:07;13.52;;;3.05;;
52898;SDS011;38763;53.096;6.062;2022-10-17T00:05:33;12.13;;;3.00;;
52898;SDS011;38763;53.096;6.062;2022-10-17T00:08:02;9.98;;;3.00;;
52898;SDS011;38763;53.096;6.062;2022-10-17T00:10:28;12.10;;;3.20;;
52898;SDS011;38763;53.096;6.062;2022-10-17T00:12:54;12.43;;;2.75;;
52898;SDS011;38763;53.096;6.062;2022-10-17T00:15:19;13.38;;;3.25;;
52898;SDS011;38763;53.096;6.062;2022-10-17T00:17:46;12.15;;;3.65;;
52898;SDS011;38763;53.096;6.062;2022-10-17T00:20:12;9.73;;;3.10;;
52898;SDS011;38763;53.096;6.062;2022-10-17T00:22:38;11.55;;;3.10;;
52898;SDS011;38763;53.096;6.062;2022-10-17T00:25:03;9.15;;;3.00;;
52898;SDS011;38763;53.096;6.062;2022-10-17T00:27:29;9.32;;;3.20;;
52898;SDS011;38763;53.096;6.062;2022-10-17T00:29:58;11.90;;;3.60;;
52898;SDS011;38763;53.096;6.062;2022-10-17T00:32:23;13.27;;;3.28;;
52898;SDS011;38763;53.096;6.062;2022-10-17T00:34:49;10.73;;;3.20;;
52898;SDS011;38763;53.096;6.062;2022-10-17T00:37:14;10.63;;;3.45;;
52898;SDS011;38763;53.096;6.062;2022-10-17T00:39:40;10.10;;;3.20;;
52898;SDS011;38763;53.096;6.062;2022-10-17T00:42:06;10.23;;;3.63;;
52898;SDS011;38763;53.096;6.062;2022-10-17T00:47:01;12.00;;;3.80;;
52898;SDS011;38763;53.096;6.062;2022-10-17T00:49:30;8.93;;;3.20;;
52898;SDS011;38763;53.096;6.062;2022-10-17T00:51:59;10.30;;;3.53;;
52898;SDS011;38763;53.096;6.062;2022-10-17T00:54:31;10.77;;;3.97;;
52898;SDS011;38763;53.096;6.062;2022-10-17T00:56:59;12.85;;;4.38;;
52898;SDS011;38763;53.096;6.062;2022-10-17T00:59:26;19.58;;;4.40;;
52898;SDS011;38763;53.096;6.062;2022-10-17T01:01:56;14.27;;;3.92;;
52898;SDS011;38763;53.096;6.062;2022-10-17T01:04:25;11.05;;;3.83;;
52898;SDS011;38763;53.096;6.062;2022-10-17T01:06:51;14.05;;;4.32;;
52898;SDS011;38763;53.096;6.062;2022-10-17T01:09:17;12.90;;;4.55;;
52898;SDS011;38763;53.096;6.062;2022-10-17T01:11:49;11.98;;;4.35;;
52898;SDS011;38763;53.096;6.062;2022-10-17T01:14:30;15.57;;;4.15;;
52898;SDS011;38763;53.096;6.062;2022-10-17T01:25:51;10.63;;;4.47;;
52898;SDS011;38763;53.096;6.062;2022-10-17T01:28:49;15.90;;;4.55;;
52898;SDS011;38763;53.096;6.062;2022-10-17T01:31:19;13.32;;;4.97;;
52898;SDS011;38763;53.096;6.062;2022-10-17T01:34:02;12.73;;;4.75;;
52898;SDS011;38763;53.096;6.062;2022-10-17T01:44:41;11.45;;;4.88;;
52898;SDS011;38763;53.096;6.062;2022-10-17T01:47:13;11.20;;;4.95;;
52898;SDS011;38763;53.096;6.062;2022-10-17T01:49:43;13.40;;;4.82;;
52898;SDS011;38763;53.096;6.062;2022-10-17T01:52:12;10.93;;;5.38;;
52898;SDS011;38763;53.096;6.062;2022-10-17T01:54:47;11.43;;;4.70;;
52898;SDS011;38763;53.096;6.062;2022-10-17T01:57:30;16.05;;;6.05;;
52898;SDS011;38763;53.096;6.062;2022-10-17T02:00:07;11.98;;;4.68;;
52898;SDS011;38763;53.096;6.062;2022-10-17T02:02:36;13.60;;;5.10;;
52898;SDS011;38763;53.096;6.062;2022-10-17T02:05:02;11.90;;;5.10;;
52898;SDS011;38763;53.096;6.062;2022-10-17T02:07:29;10.40;;;5.38;;
52898;SDS011;38763;53.096;6.062;2022-10-17T02:09:54;11.30;;;5.32;;
52898;SDS011;38763;53.096;6.062;2022-10-17T02:15:20;9.93;;;5.20;;
52898;SDS011;38763;53.096;6.062;2022-10-17T02:20:50;13.10;;;5.72;;
52898;SDS011;38763;53.096;6.062;2022-10-17T02:23:35;14.02;;;5.57;;
52898;SDS011;38763;53.096;6.062;2022-10-17T02:26:21;10.35;;;6.03;;
52898;SDS011;38763;53.096;6.062;2022-10-17T02:29:07;11.63;;;5.82;;
52898;SDS011;38763;53.096;6.062;2022-10-17T02:31:42;14.20;;;6.43;;
52898;SDS011;38763;53.096;6.062;2022-10-17T02:34:19;8.98;;;5.75;;
52898;SDS011;38763;53.096;6.062;2022-10-17T02:36:57;10.50;;;6.10;;
52898;SDS011;38763;53.096;6.062;2022-10-17T02:39:26;14.40;;;6.63;;
52898;SDS011;38763;53.096;6.062;2022-10-17T02:41:53;13.43;;;6.75;;
52898;SDS011;38763;53.096;6.062;2022-10-17T02:44:22;12.80;;;6.55;;
52898;SDS011;38763;53.096;6.062;2022-10-17T02:46:51;15.80;;;6.57;;
52898;SDS011;38763;53.096;6.062;2022-10-17T02:49:22;15.85;;;7.32;;
52898;SDS011;38763;53.096;6.062;2022-10-17T02:51:56;16.70;;;7.75;;
52898;SDS011;38763;53.096;6.062;2022-10-17T02:55:20;14.93;;;6.72;;
52898;SDS011;38763;53.096;6.062;2022-10-17T03:00:03;15.77;;;8.32;;
52898;SDS011;38763;53.096;6.062;2022-10-17T03:02:46;14.45;;;8.10;;
52898;SDS011;38763;53.096;6.062;2022-10-17T03:05:24;16.98;;;8.43;;
52898;SDS011;38763;53.096;6.062;2022-10-17T03:07:51;18.42;;;8.52;;
52898;SDS011;38763;53.096;6.062;2022-10-17T03:10:18;17.13;;;9.65;;
52898;SDS011;38763;53.096;6.062;2022-10-17T03:12:43;15.18;;;8.82;;
52898;SDS011;38763;53.096;6.062;2022-10-17T03:15:09;14.98;;;9.05;;
52898;SDS011;38763;53.096;6.062;2022-10-17T03:17:35;14.35;;;7.50;;
52898;SDS011;38763;53.096;6.062;2022-10-17T03:20:01;16.27;;;9.65;;
52898;SDS011;38763;53.096;6.062;2022-10-17T03:22:28;19.95;;;9.45;;
52898;SDS011;38763;53.096;6.062;2022-10-17T03:24:53;19.63;;;10.07;;
52898;SDS011;38763;53.096;6.062;2022-10-17T03:27:19;20.48;;;10.93;;
52898;SDS011;38763;53.096;6.062;2022-10-17T03:29:44;17.45;;;10.15;;
52898;SDS011;38763;53.096;6.062;2022-10-17T03:32:10;19.77;;;11.00;;
52898;SDS011;38763;53.096;6.062;2022-10-17T03:34:35;19.42;;;11.45;;
52898;SDS011;38763;53.096;6.062;2022-10-17T03:37:01;19.00;;;10.93;;
52898;SDS011;38763;53.096;6.062;2022-10-17T03:39:27;21.25;;;11.32;;
52898;SDS011;38763;53.096;6.062;2022-10-17T03:41:52;20.55;;;12.40;;
52898;SDS011;38763;53.096;6.062;2022-10-17T03:44:18;20.55;;;12.43;;
52898;SDS011;38763;53.096;6.062;2022-10-17T03:46:43;21.20;;;12.70;;
52898;SDS011;38763;53.096;6.062;2022-10-17T03:49:09;22.25;;;12.77;;
52898;SDS011;38763;53.096;6.062;2022-10-17T03:51:35;22.95;;;12.60;;
52898;SDS011;38763;53.096;6.062;2022-10-17T03:54:01;21.33;;;12.98;;
52898;SDS011;38763;53.096;6.062;2022-10-17T03:56:26;26.70;;;13.82;;
52898;SDS011;38763;53.096;6.062;2022-10-17T03:58:52;23.98;;;14.23;;
52898;SDS011;38763;53.096;6.062;2022-10-17T04:01:22;24.83;;;14.90;;
52898;SDS011;38763;53.096;6.062;2022-10-17T04:03:51;23.90;;;14.43;;
52898;SDS011;38763;53.096;6.062;2022-10-17T04:06:19;26.10;;;14.95;;
52898;SDS011;38763;53.096;6.062;2022-10-17T04:08:45;26.48;;;14.93;;
52898;SDS011;38763;53.096;6.062;2022-10-17T04:11:12;30.05;;;15.60;;
52898;SDS011;38763;53.096;6.062;2022-10-17T04:13:39;26.63;;;15.10;;
52898;SDS011;38763;53.096;6.062;2022-10-17T04:16:06;25.50;;;15.35;;
52898;SDS011;38763;53.096;6.062;2022-10-17T04:18:35;30.65;;;15.63;;
52898;SDS011;38763;53.096;6.062;2022-10-17T04:21:01;29.35;;;15.63;;
52898;SDS011;38763;53.096;6.062;2022-10-17T04:23:28;29.83;;;16.77;;
52898;SDS011;38763;53.096;6.062;2022-10-17T04:25:55;27.98;;;16.77;;
52898;SDS011;38763;53.096;6.062;2022-10-17T04:28:21;28.17;;;16.58;;
52898;SDS011;38763;53.096;6.062;2022-10-17T04:30:54;28.88;;;16.35;;
52898;SDS011;38763;53.096;6.062;2022-10-17T04:33:23;31.58;;;16.98;;
52898;SDS011;38763;53.096;6.062;2022-10-17T04:35:59;28.83;;;16.58;;
52898;SDS011;38763;53.096;6.062;2022-10-17T04:38:26;29.92;;;16.60;;
52898;SDS011;38763;53.096;6.062;2022-10-17T04:40:52;30.75;;;17.50;;
52898;SDS011;38763;53.096;6.062;2022-10-17T04:43:18;31.83;;;17.88;;
52898;SDS011;38763;53.096;6.062;2022-10-17T04:45:44;28.45;;;15.65;;
52898;SDS011;38763;53.096;6.062;2022-10-17T04:48:09;33.15;;;16.52;;
52898;SDS011;38763;53.096;6.062;2022-10-17T04:50:35;31.52;;;17.27;;
52898;SDS011;38763;53.096;6.062;2022-10-17T04:53:01;28.38;;;16.90;;
52898;SDS011;38763;53.096;6.062;2022-10-17T04:55:26;29.05;;;17.33;;
52898;SDS011;38763;53.096;6.062;2022-10-17T04:57:52;30.63;;;16.67;;
52898;SDS011;38763;53.096;6.062;2022-10-17T05:00:17;35.25;;;17.60;;
52898;SDS011;38763;53.096;6.062;2022-10-17T05:02:43;30.15;;;16.83;;
52898;SDS011;38763;53.096;6.062;2022-10-17T05:05:09;31.55;;;17.73;;
52898;SDS011;38763;53.096;6.062;2022-10-17T05:07:34;30.10;;;17.23;;
52898;SDS011;38763;53.096;6.062;2022-10-17T05:10:03;29.92;;;17.27;;
52898;SDS011;38763;53.096;6.062;2022-10-17T05:12:29;35.20;;;17.65;;
52898;SDS011;38763;53.096;6.062;2022-10-17T05:14:54;29.70;;;17.55;;
52898;SDS011;38763;53.096;6.062;2022-10-17T05:17:20;38.78;;;17.45;;
52898;SDS011;38763;53.096;6.062;2022-10-17T05:19:46;32.80;;;18.13;;
52898;SDS011;38763;53.096;6.062;2022-10-17T05:22:11;33.58;;;17.92;;
52898;SDS011;38763;53.096;6.062;2022-10-17T05:24:37;29.85;;;16.52;;
52898;SDS011;38763;53.096;6.062;2022-10-17T05:27:02;40.95;;;18.05;;
52898;SDS011;38763;53.096;6.062;2022-10-17T05:29:28;32.47;;;17.48;;
52898;SDS011;38763;53.096;6.062;2022-10-17T05:31:54;30.92;;;17.13;;
52898;SDS011;38763;53.096;6.062;2022-10-17T05:34:19;35.15;;;17.98;;
52898;SDS011;38763;53.096;6.062;2022-10-17T05:36:45;30.02;;;17.27;;
52898;SDS011;38763;53.096;6.062;2022-10-17T05:39:11;33.30;;;17.98;;
52898;SDS011;38763;53.096;6.062;2022-10-17T05:41:38;29.95;;;17.48;;
52898;SDS011;38763;53.096;6.062;2022-10-17T05:44:04;31.65;;;18.20;;
52898;SDS011;38763;53.096;6.062;2022-10-17T05:46:30;36.15;;;18.45;;
52898;SDS011;38763;53.096;6.062;2022-10-17T05:48:55;30.40;;;17.83;;
52898;SDS011;38763;53.096;6.062;2022-10-17T05:51:21;32.00;;;18.27;;
52898;SDS011;38763;53.096;6.062;2022-10-17T05:53:47;32.83;;;18.23;;
52898;SDS011;38763;53.096;6.062;2022-10-17T05:56:12;34.85;;;18.00;;
52898;SDS011;38763;53.096;6.062;2022-10-17T05:58:39;41.80;;;18.10;;
52898;SDS011;38763;53.096;6.062;2022-10-17T06:01:09;34.05;;;18.70;;
52898;SDS011;38763;53.096;6.062;2022-10-17T06:03:36;34.97;;;19.38;;
52898;SDS011;38763;53.096;6.062;2022-10-17T06:06:05;35.58;;;18.35;;
52898;SDS011;38763;53.096;6.062;2022-10-17T06:08:33;31.77;;;16.88;;
52898;SDS011;38763;53.096;6.062;2022-10-17T06:10:58;32.25;;;18.25;;
52898;SDS011;38763;53.096;6.062;2022-10-17T06:13:24;31.25;;;17.23;;
52898;SDS011;38763;53.096;6.062;2022-10-17T06:15:50;32.78;;;16.70;;
52898;SDS011;38763;53.096;6.062;2022-10-17T06:18:16;28.10;;;15.57;;
52898;SDS011;38763;53.096;6.062;2022-10-17T06:20:41;25.25;;;15.15;;
52898;SDS011;38763;53.096;6.062;2022-10-17T06:23:07;30.73;;;16.23;;
52898;SDS011;38763;53.096;6.062;2022-10-17T06:25:32;27.17;;;15.05;;
52898;SDS011;38763;53.096;6.062;2022-10-17T06:27:58;29.88;;;15.45;;
52898;SDS011;38763;53.096;6.062;2022-10-17T06:30:24;28.10;;;14.65;;
52898;SDS011;38763;53.096;6.062;2022-10-17T06:32:53;26.08;;;14.05;;
52898;SDS011;38763;53.096;6.062;2022-10-17T06:35:18;27.23;;;14.52;;
52898;SDS011;38763;53.096;6.062;2022-10-17T06:37:44;25.13;;;13.80;;
52898;SDS011;38763;53.096;6.062;2022-10-17T06:40:10;21.63;;;13.02;;
52898;SDS011;38763;53.096;6.062;2022-10-17T06:42:37;25.73;;;13.07;;
52898;SDS011;38763;53.096;6.062;2022-10-17T06:45:03;21.02;;;12.50;;
52898;SDS011;38763;53.096;6.062;2022-10-17T06:47:29;23.02;;;13.00;;
52898;SDS011;38763;53.096;6.062;2022-10-17T06:49:55;25.27;;;12.23;;
52898;SDS011;38763;53.096;6.062;2022-10-17T06:52:21;19.98;;;11.90;;
52898;SDS011;38763;53.096;6.062;2022-10-17T06:54:46;21.35;;;11.55;;
52898;SDS011;38763;53.096;6.062;2022-10-17T06:57:12;19.58;;;11.25;;
52898;SDS011;38763;53.096;6.062;2022-10-17T06:59:37;20.33;;;11.95;;
52898;SDS011;38763;53.096;6.062;2022-10-17T07:02:03;18.42;;;11.57;;
52898;SDS011;38763;53.096;6.062;2022-10-17T07:04:30;19.98;;;11.15;;
52898;SDS011;38763;53.096;6.062;2022-10-17T07:06:55;20.65;;;11.27;;
52898;SDS011;38763;53.096;6.062;2022-10-17T07:09:21;19.80;;;10.50;;
52898;SDS011;38763;53.096;6.062;2022-10-17T07:11:48;16.80;;;10.30;;
52898;SDS011;38763;53.096;6.062;2022-10-17T07:14:14;20.63;;;10.90;;
52898;SDS011;38763;53.096;6.062;2022-10-17T07:16:39;17.50;;;10.40;;
52898;SDS011;38763;53.096;6.062;2022-10-17T07:19:05;21.55;;;11.13;;
52898;SDS011;38763;53.096;6.062;2022-10-17T07:21:30;17.35;;;10.20;;
52898;SDS011;38763;53.096;6.062;2022-10-17T07:23:57;17.30;;;9.95;;
52898;SDS011;38763;53.096;6.062;2022-10-17T07:26:22;14.13;;;9.60;;
52898;SDS011;38763;53.096;6.062;2022-10-17T07:28:50;18.50;;;9.95;;
52898;SDS011;38763;53.096;6.062;2022-10-17T07:31:17;18.63;;;9.38;;
52898;SDS011;38763;53.096;6.062;2022-10-17T07:33:44;16.35;;;9.55;;
52898;SDS011;38763;53.096;6.062;2022-10-17T07:36:10;16.05;;;8.93;;
52898;SDS011;38763;53.096;6.062;2022-10-17T07:38:36;20.10;;;10.10;;
52898;SDS011;38763;53.096;6.062;2022-10-17T07:41:03;16.20;;;8.50;;
52898;SDS011;38763;53.096;6.062;2022-10-17T07:43:30;17.13;;;9.65;;
52898;SDS011;38763;53.096;6.062;2022-10-17T07:45:57;16.20;;;9.32;;
52898;SDS011;38763;53.096;6.062;2022-10-17T07:48:24;16.90;;;9.25;;
52898;SDS011;38763;53.096;6.062;2022-10-17T07:50:50;17.42;;;9.45;;
52898;SDS011;38763;53.096;6.062;2022-10-17T07:53:16;16.23;;;9.00;;
52898;SDS011;38763;53.096;6.062;2022-10-17T07:55:42;18.35;;;9.10;;
52898;SDS011;38763;53.096;6.062;2022-10-17T07:58:10;13.32;;;8.63;;
52898;SDS011;38763;53.096;6.062;2022-10-17T08:00:36;17.65;;;9.15;;
52898;SDS011;38763;53.096;6.062;2022-10-17T08:03:02;13.73;;;8.38;;
52898;SDS011;38763;53.096;6.062;2022-10-17T08:05:29;22.70;;;9.52;;
52898;SDS011;38763;53.096;6.062;2022-10-17T08:07:55;24.33;;;9.07;;
52898;SDS011;38763;53.096;6.062;2022-10-17T08:10:21;13.80;;;8.80;;
52898;SDS011;38763;53.096;6.062;2022-10-17T08:12:53;20.23;;;9.45;;
52898;SDS011;38763;53.096;6.062;2022-10-17T08:15:20;13.13;;;8.45;;
52898;SDS011;38763;53.096;6.062;2022-10-17T08:17:46;13.23;;;8.55;;
52898;SDS011;38763;53.096;6.062;2022-10-17T08:20:12;17.50;;;9.05;;
52898;SDS011;38763;53.096;6.062;2022-10-17T08:22:38;14.98;;;8.93;;
52898;SDS011;38763;53.096;6.062;2022-10-17T08:25:04;14.95;;;9.00;;
52898;SDS011;38763;53.096;6.062;2022-10-17T08:27:31;13.45;;;9.15;;
52898;SDS011;38763;53.096;6.062;2022-10-17T08:29:58;16.52;;;9.30;;
52898;SDS011;38763;53.096;6.062;2022-10-17T08:32:24;19.67;;;10.30;;
52898;SDS011;38763;53.096;6.062;2022-10-17T08:34:52;20.38;;;10.27;;
52898;SDS011;38763;53.096;6.062;2022-10-17T08:37:18;14.05;;;8.82;;
52898;SDS011;38763;53.096;6.062;2022-10-17T08:39:43;19.52;;;10.10;;
52898;SDS011;38763;53.096;6.062;2022-10-17T08:45:11;18.13;;;10.18;;
52898;SDS011;38763;53.096;6.062;2022-10-17T08:47:46;16.33;;;10.57;;
52898;SDS011;38763;53.096;6.062;2022-10-17T08:58:00;18.00;;;10.88;;
52898;SDS011;38763;53.096;6.062;2022-10-17T09:00:26;20.67;;;11.23;;
52898;SDS011;38763;53.096;6.062;2022-10-17T09:03:04;16.23;;;9.77;;
52898;SDS011;38763;53.096;6.062;2022-10-17T09:05:43;18.17;;;11.02;;
52898;SDS011;38763;53.096;6.062;2022-10-17T09:09:14;20.40;;;11.50;;
52898;SDS011;38763;53.096;6.062;2022-10-17T09:16:49;19.85;;;11.57;;
52898;SDS011;38763;53.096;6.062;2022-10-17T09:19:21;16.98;;;10.50;;
52898;SDS011;38763;53.096;6.062;2022-10-17T09:27:01;17.20;;;11.07;;
52898;SDS011;38763;53.096;6.062;2022-10-17T09:29:28;19.20;;;11.18;;
52898;SDS011;38763;53.096;6.062;2022-10-17T09:31:56;25.58;;;11.77;;
52898;SDS011;38763;53.096;6.062;2022-10-17T09:34:24;22.30;;;11.73;;
52898;SDS011;38763;53.096;6.062;2022-10-17T09:36:53;20.40;;;11.57;;
52898;SDS011;38763;53.096;6.062;2022-10-17T09:39:22;24.27;;;11.65;;
52898;SDS011;38763;53.096;6.062;2022-10-17T09:41:52;26.75;;;12.63;;
52898;SDS011;38763;53.096;6.062;2022-10-17T09:44:23;20.20;;;11.82;;
52898;SDS011;38763;53.096;6.062;2022-10-17T09:49:51;22.45;;;12.38;;
52898;SDS011;38763;53.096;6.062;2022-10-17T09:57:25;23.08;;;12.05;;
52898;SDS011;38763;53.096;6.062;2022-10-17T09:59:57;27.38;;;11.93;;
52898;SDS011;38763;53.096;6.062;2022-10-17T10:02:23;21.42;;;11.48;;
52898;SDS011;38763;53.096;6.062;2022-10-17T10:07:29;24.83;;;12.95;;
52898;SDS011;38763;53.096;6.062;2022-10-17T10:09:57;25.90;;;13.20;;
52898;SDS011;38763;53.096;6.062;2022-10-17T10:12:32;26.33;;;13.43;;
52898;SDS011;38763;53.096;6.062;2022-10-17T10:15:00;20.42;;;12.18;;
52898;SDS011;38763;53.096;6.062;2022-10-17T10:17:36;24.60;;;13.43;;
52898;SDS011;38763;53.096;6.062;2022-10-17T10:23:05;28.15;;;14.00;;
52898;SDS011;38763;53.096;6.062;2022-10-17T10:28:35;28.00;;;13.85;;
52898;SDS011;38763;53.096;6.062;2022-10-17T10:31:03;28.45;;;14.30;;
52898;SDS011;38763;53.096;6.062;2022-10-17T10:33:32;32.05;;;15.05;;
52898;SDS011;38763;53.096;6.062;2022-10-17T10:36:02;25.98;;;14.15;;
52898;SDS011;38763;53.096;6.062;2022-10-17T10:38:30;37.47;;;16.30;;
52898;SDS011;38763;53.096;6.062;2022-10-17T10:41:04;25.45;;;14.48;;
52898;SDS011;38763;53.096;6.062;2022-10-17T10:46:06;25.15;;;14.48;;
52898;SDS011;38763;53.096;6.062;2022-10-17T10:48:58;30.58;;;14.77;;
52898;SDS011;38763;53.096;6.062;2022-10-17T10:51:39;31.80;;;15.35;;
52898;SDS011;38763;53.096;6.062;2022-10-17T10:54:24;31.02;;;15.40;;
52898;SDS011;38763;53.096;6.062;2022-10-17T10:56:57;28.10;;;14.07;;
52898;SDS011;38763;53.096;6.062;2022-10-17T11:02:03;31.23;;;14.18;;
52898;SDS011;38763;53.096;6.062;2022-10-17T11:04:42;31.17;;;14.20;;
52898;SDS011;38763;53.096;6.062;2022-10-17T11:07:17;18.27;;;10.45;;
52898;SDS011;38763;53.096;6.062;2022-10-17T11:10:17;21.95;;;11.32;;
52898;SDS011;38763;53.096;6.062;2022-10-17T11:15:47;23.30;;;11.65;;
52898;SDS011;38763;53.096;6.062;2022-10-17T11:18:34;24.10;;;13.35;;
52898;SDS011;38763;53.096;6.062;2022-10-17T11:21:15;21.63;;;11.55;;
52898;SDS011;38763;53.096;6.062;2022-10-17T11:26:44;24.48;;;11.82;;
52898;SDS011;38763;53.096;6.062;2022-10-17T11:29:14;20.90;;;11.45;;
52898;SDS011;38763;53.096;6.062;2022-10-17T11:31:42;22.08;;;10.80;;
52898;SDS011;38763;53.096;6.062;2022-10-17T11:34:17;17.42;;;10.65;;
52898;SDS011;38763;53.096;6.062;2022-10-17T11:36:53;19.65;;;10.07;;
52898;SDS011;38763;53.096;6.062;2022-10-17T11:42:14;13.25;;;7.55;;
52898;SDS011;38763;53.096;6.062;2022-10-17T11:44:44;16.13;;;8.93;;
52898;SDS011;38763;53.096;6.062;2022-10-17T11:47:17;15.38;;;8.15;;
52898;SDS011;38763;53.096;6.062;2022-10-17T11:49:49;13.65;;;8.32;;
52898;SDS011;38763;53.096;6.062;2022-10-17T11:52:36;14.80;;;8.55;;
52898;SDS011;38763;53.096;6.062;2022-10-17T11:55:15;19.05;;;9.35;;
52898;SDS011;38763;53.096;6.062;2022-10-17T11:57:51;16.48;;;9.30;;
52898;SDS011;38763;53.096;6.062;2022-10-17T12:10:15;11.75;;;7.43;;
52898;SDS011;38763;53.096;6.062;2022-10-17T12:12:27;13.30;;;6.80;;
52898;SDS011;38763;53.096;6.062;2022-10-17T12:17:44;12.13;;;5.70;;
52898;SDS011;38763;53.096;6.062;2022-10-17T12:22:53;9.30;;;4.70;;
52898;SDS011;38763;53.096;6.062;2022-10-17T12:30:31;8.25;;;4.70;;
52898;SDS011;38763;53.096;6.062;2022-10-17T12:35:38;10.80;;;4.30;;
52898;SDS011;38763;53.096;6.062;2022-10-17T12:38:14;6.40;;;3.88;;
52898;SDS011;38763;53.096;6.062;2022-10-17T12:56:08;9.57;;;4.72;;
52898;SDS011;38763;53.096;6.062;2022-10-17T12:58:34;10.88;;;5.00;;
52898;SDS011;38763;53.096;6.062;2022-10-17T13:01:00;11.23;;;4.35;;
52898;SDS011;38763;53.096;6.062;2022-10-17T13:03:31;11.55;;;4.10;;
52898;SDS011;38763;53.096;6.062;2022-10-17T13:06:05;9.35;;;4.10;;
52898;SDS011;38763;53.096;6.062;2022-10-17T13:08:36;14.52;;;4.72;;
52898;SDS011;38763;53.096;6.062;2022-10-17T13:11:07;9.73;;;3.92;;
52898;SDS011;38763;53.096;6.062;2022-10-17T13:13:49;9.68;;;3.97;;
52898;SDS011;38763;53.096;6.062;2022-10-17T13:19:01;10.48;;;3.83;;
52898;SDS011;38763;53.096;6.062;2022-10-17T13:21:38;8.65;;;3.85;;
52898;SDS011;38763;53.096;6.062;2022-10-17T13:26:55;10.48;;;4.25;;
52898;SDS011;38763;53.096;6.062;2022-10-17T13:29:23;12.15;;;4.50;;
52898;SDS011;38763;53.096;6.062;2022-10-17T13:31:51;12.50;;;5.30;;
52898;SDS011;38763;53.096;6.062;2022-10-17T13:34:19;8.38;;;5.00;;
52898;SDS011;38763;53.096;6.062;2022-10-17T13:36:47;8.60;;;4.63;;
52898;SDS011;38763;53.096;6.062;2022-10-17T13:39:23;10.52;;;4.85;;
52898;SDS011;38763;53.096;6.062;2022-10-17T13:41:51;8.95;;;4.57;;
52898;SDS011;38763;53.096;6.062;2022-10-17T13:44:19;11.05;;;5.05;;
52898;SDS011;38763;53.096;6.062;2022-10-17T13:46:47;9.68;;;4.55;;
52898;SDS011;38763;53.096;6.062;2022-10-17T13:49:26;9.45;;;4.35;;
52898;SDS011;38763;53.096;6.062;2022-10-17T13:51:55;10.00;;;4.22;;
52898;SDS011;38763;53.096;6.062;2022-10-17T13:54:33;9.43;;;4.10;;
52898;SDS011;38763;53.096;6.062;2022-10-17T13:57:01;8.75;;;3.70;;
52898;SDS011;38763;53.096;6.062;2022-10-17T13:59:33;7.85;;;3.40;;
52898;SDS011;38763;53.096;6.062;2022-10-17T14:02:02;5.72;;;2.63;;
52898;SDS011;38763;53.096;6.062;2022-10-17T14:04:29;6.05;;;2.83;;
52898;SDS011;38763;53.096;6.062;2022-10-17T14:06:55;6.75;;;2.50;;
52898;SDS011;38763;53.096;6.062;2022-10-17T14:09:22;7.75;;;2.63;;
52898;SDS011;38763;53.096;6.062;2022-10-17T14:12:05;4.68;;;2.10;;
52898;SDS011;38763;53.096;6.062;2022-10-17T14:14:35;6.75;;;2.22;;
52898;SDS011;38763;53.096;6.062;2022-10-17T14:17:01;10.75;;;2.17;;
52898;SDS011;38763;53.096;6.062;2022-10-17T14:19:36;7.75;;;2.13;;
52898;SDS011;38763;53.096;6.062;2022-10-17T14:22:16;5.88;;;2.30;;
52898;SDS011;38763;53.096;6.062;2022-10-17T14:24:44;7.63;;;2.55;;
52898;SDS011;38763;53.096;6.062;2022-10-17T14:30:43;15.60;;;5.22;;
52898;SDS011;38763;53.096;6.062;2022-10-17T14:33:26;11.82;;;5.70;;
52898;SDS011;38763;53.096;6.062;2022-10-17T14:35:55;20.92;;;12.63;;
52898;SDS011;38763;53.096;6.062;2022-10-17T14:38:22;36.00;;;19.48;;
52898;SDS011;38763;53.096;6.062;2022-10-17T14:40:49;43.70;;;22.58;;
52898;SDS011;38763;53.096;6.062;2022-10-17T14:43:39;43.67;;;24.67;;
52898;SDS011;38763;53.096;6.062;2022-10-17T14:46:04;12.77;;;6.47;;
52898;SDS011;38763;53.096;6.062;2022-10-17T14:48:31;10.60;;;7.05;;
52898;SDS011;38763;53.096;6.062;2022-10-17T14:53:35;20.58;;;13.77;;
52898;SDS011;38763;53.096;6.062;2022-10-17T14:56:02;17.10;;;3.63;;
52898;SDS011;38763;53.096;6.062;2022-10-17T14:58:44;8.25;;;4.40;;
52898;SDS011;38763;53.096;6.062;2022-10-17T15:01:10;42.92;;;23.38;;
52898;SDS011;38763;53.096;6.062;2022-10-17T15:03:35;116.95;;;55.83;;
52898;SDS011;38763;53.096;6.062;2022-10-17T15:06:08;96.53;;;39.65;;
52898;SDS011;38763;53.096;6.062;2022-10-17T15:08:51;55.47;;;24.50;;
52898;SDS011;38763;53.096;6.062;2022-10-17T15:11:17;160.88;;;75.20;;
52898;SDS011;38763;53.096;6.062;2022-10-17T15:13:42;18.23;;;7.57;;
52898;SDS011;38763;53.096;6.062;2022-10-17T15:16:12;15.90;;;5.75;;
52898;SDS011;38763;53.096;6.062;2022-10-17T15:18:42;6.53;;;3.25;;
52898;SDS011;38763;53.096;6.062;2022-10-17T15:21:10;14.07;;;6.63;;
52898;SDS011;38763;53.096;6.062;2022-10-17T15:23:37;24.73;;;14.95;;
52898;SDS011;38763;53.096;6.062;2022-10-17T15:26:08;35.03;;;20.25;;
52898;SDS011;38763;53.096;6.062;2022-10-17T15:28:38;63.97;;;37.70;;
52898;SDS011;38763;53.096;6.062;2022-10-17T15:31:04;48.70;;;28.08;;
52898;SDS011;38763;53.096;6.062;2022-10-17T15:33:29;91.32;;;56.33;;
52898;SDS011;38763;53.096;6.062;2022-10-17T15:35:55;13.77;;;9.73;;
52898;SDS011;38763;53.096;6.062;2022-10-17T15:38:20;10.55;;;4.25;;
52898;SDS011;38763;53.096;6.062;2022-10-17T15:40:46;9.40;;;4.55;;
52898;SDS011;38763;53.096;6.062;2022-10-17T15:43:14;15.93;;;7.00;;
52898;SDS011;38763;53.096;6.062;2022-10-17T15:45:40;10.43;;;4.47;;
52898;SDS011;38763;53.096;6.062;2022-10-17T15:48:06;24.92;;;15.55;;
52898;SDS011;38763;53.096;6.062;2022-10-17T15:50:34;15.27;;;8.48;;
52898;SDS011;38763;53.096;6.062;2022-10-17T15:52:59;16.95;;;8.77;;
52898;SDS011;38763;53.096;6.062;2022-10-17T15:55:25;20.65;;;11.15;;
52898;SDS011;38763;53.096;6.062;2022-10-17T15:57:51;12.32;;;7.30;;
52898;SDS011;38763;53.096;6.062;2022-10-17T16:00:18;10.38;;;5.45;;
52898;SDS011;38763;53.096;6.062;2022-10-17T16:02:47;7.32;;;3.47;;
52898;SDS011;38763;53.096;6.062;2022-10-17T16:05:17;6.35;;;3.72;;
52898;SDS011;38763;53.096;6.062;2022-10-17T16:07:47;32.28;;;16.45;;
52898;SDS011;38763;53.096;6.062;2022-10-17T16:10:14;29.00;;;16.15;;
52898;SDS011;38763;53.096;6.062;2022-10-17T16:12:40;14.18;;;7.07;;
52898;SDS011;38763;53.096;6.062;2022-10-17T16:15:08;38.58;;;19.80;;
52898;SDS011;38763;53.096;6.062;2022-10-17T16:17:41;19.55;;;9.32;;
52898;SDS011;38763;53.096;6.062;2022-10-17T16:20:08;15.75;;;7.85;;
52898;SDS011;38763;53.096;6.062;2022-10-17T16:22:35;32.92;;;18.20;;
52898;SDS011;38763;53.096;6.062;2022-10-17T16:25:04;27.58;;;13.60;;
52898;SDS011;38763;53.096;6.062;2022-10-17T16:27:34;21.52;;;8.88;;
52898;SDS011;38763;53.096;6.062;2022-10-17T16:30:01;12.30;;;6.18;;
52898;SDS011;38763;53.096;6.062;2022-10-17T16:32:28;40.80;;;23.42;;
52898;SDS011;38763;53.096;6.062;2022-10-17T16:34:54;72.80;;;42.83;;
52898;SDS011;38763;53.096;6.062;2022-10-17T16:37:19;22.88;;;11.77;;
52898;SDS011;38763;53.096;6.062;2022-10-17T16:39:45;11.02;;;5.28;;
52898;SDS011;38763;53.096;6.062;2022-10-17T16:42:16;8.98;;;3.80;;
52898;SDS011;38763;53.096;6.062;2022-10-17T16:44:42;8.20;;;3.75;;
52898;SDS011;38763;53.096;6.062;2022-10-17T16:47:08;12.32;;;4.22;;
52898;SDS011;38763;53.096;6.062;2022-10-17T16:49:34;8.30;;;3.90;;